Time;durP1;ratioP1;P1;durP2;ratioP2;P2;SDS_P1;SDS_P2;PMS_P1;PMS_P2;Temp;Humidity;BMP_temperature;BMP_pressure;BME280_temperature;BME280_humidity;BME280_pressure;Samples;Min_cycle;Max_cycle;Signal;HPM_P1;HPM_P2
2022/07/29 00:00:27;;;;;;;6.33;3.83;;;;;;;19.49;100.00;101145.23;1715318;82;21598;-92
2022/07/29 00:02:55;;;;;;;3.65;3.22;;;;;;;19.49;100.00;101141.75;1723567;81;21143;-93
2022/07/29 00:05:23;;;;;;;3.75;3.33;;;;;;;19.50;100.00;101136.33;1723871;82;21055;-92
2022/07/29 00:07:51;;;;;;;5.53;3.10;;;;;;;19.50;100.00;101140.28;1727838;82;21038;-91
2022/07/29 00:10:20;;;;;;;3.45;3.20;;;;;;;19.52;100.00;101141.44;1692698;83;21054;-93
2022/07/29 00:12:49;;;;;;;4.53;3.17;;;;;;;19.52;100.00;101148.85;1739059;81;21078;-92
2022/07/29 00:15:19;;;;;;;5.15;3.60;;;;;;;19.53;100.00;101147.05;1712145;82;21536;-92
2022/07/29 00:17:48;;;;;;;3.80;3.50;;;;;;;19.55;100.00;101150.34;1727880;81;21624;-92
2022/07/29 00:20:16;;;;;;;3.70;3.35;;;;;;;19.57;100.00;101148.87;1765684;80;21108;-94
2022/07/29 00:22:44;;;;;;;3.75;3.08;;;;;;;19.56;100.00;101145.39;1753094;80;21065;-93
2022/07/29 00:25:13;;;;;;;3.50;3.20;;;;;;;19.56;100.00;101150.67;1764469;80;21097;-92
2022/07/29 00:27:42;;;;;;;4.47;3.10;;;;;;;19.57;100.00;101149.69;1765228;80;21783;-91
2022/07/29 00:30:11;;;;;;;4.62;3.33;;;;;;;19.55;100.00;101151.18;1756967;80;21003;-92
2022/07/29 00:32:39;;;;;;;3.40;3.20;;;;;;;19.56;100.00;101151.99;1743106;80;21004;-92
2022/07/29 00:37:56;;;;;;;3.52;3.12;;;;;;;19.49;100.00;101147.88;1731655;80;21413;-93
2022/07/29 00:40:25;;;;;;;3.77;3.05;;;;;;;19.48;100.00;101151.97;1742723;80;21140;-91
2022/07/29 00:42:53;;;;;;;3.22;3.02;;;;;;;19.48;100.00;101160.73;1743922;80;21536;-93
2022/07/29 00:45:24;;;;;;;3.33;3.12;;;;;;;19.48;100.00;101153.30;1746234;80;20967;-92
2022/07/29 00:47:53;;;;;;;3.22;3.02;;;;;;;19.50;100.00;101161.41;1739849;80;21034;-93
2022/07/29 00:50:20;;;;;;;3.20;3.00;;;;;;;19.52;100.00;101166.52;1729126;80;21081;-93
2022/07/29 00:52:51;;;;;;;3.50;3.20;;;;;;;19.53;100.00;101167.67;1740067;80;21163;-92
2022/07/29 00:55:19;;;;;;;3.77;3.12;;;;;;;19.54;100.00;101171.97;1749795;80;21039;-92
2022/07/29 00:57:47;;;;;;;5.12;3.27;;;;;;;19.55;100.00;101168.35;1749848;81;21018;-93
2022/07/29 01:00:20;;;;;;;3.70;3.35;;;;;;;19.55;100.00;101163.07;1736126;80;21082;-92
2022/07/29 01:02:50;;;;;;;3.87;3.20;;;;;;;19.56;100.00;101167.84;1749261;81;21057;-91
2022/07/29 01:05:23;;;;;;;3.72;3.33;;;;;;;19.54;100.00;101173.30;1739243;80;21086;-91
2022/07/29 01:07:54;;;;;;;3.65;3.35;;;;;;;19.51;100.00;101176.24;1747083;80;21485;-93
2022/07/29 01:10:24;;;;;;;5.03;3.00;;;;;;;19.47;100.00;101172.80;1750393;80;20995;-92
2022/07/29 01:12:56;;;;;;;3.20;3.00;;;;;;;19.42;100.00;101171.95;1737391;80;20987;-92
2022/07/29 01:15:25;;;;;;;4.87;3.40;;;;;;;19.31;100.00;101174.87;1733605;81;21013;-92
2022/07/29 01:18:24;;;;;;;3.98;3.40;;;;;;;19.16;100.00;101175.48;1742128;80;21055;-92
2022/07/29 01:21:25;;;;;;;3.70;3.30;;;;;;;19.06;100.00;101180.05;1744009;80;20994;-92
2022/07/29 01:24:32;;;;;;;4.70;3.50;;;;;;;19.00;100.00;101182.00;1745733;80;21726;-93
2022/07/29 01:27:22;;;;;;;3.60;3.22;;;;;;;18.99;100.00;101179.02;1730610;81;20999;-91
2022/07/29 01:29:57;;;;;;;3.25;2.98;;;;;;;19.02;100.00;101176.08;1747246;81;21524;-91
2022/07/29 01:32:30;;;;;;;3.87;3.45;;;;;;;19.05;100.00;101175.74;1739794;81;21813;-91
2022/07/29 01:35:26;;;;;;;3.52;3.22;;;;;;;19.10;100.00;101181.88;1757603;80;20991;-90
2022/07/29 01:38:20;;;;;;;3.65;3.33;;;;;;;19.12;100.00;101174.12;1757422;80;21555;-95
2022/07/29 01:41:05;;;;;;;3.70;3.40;;;;;;;19.15;100.00;101173.01;1752896;80;20990;-92
2022/07/29 01:43:40;;;;;;;3.60;3.30;;;;;;;19.17;100.00;101175.81;1764741;79;21542;-92
2022/07/29 01:46:13;;;;;;;3.33;3.12;;;;;;;19.20;100.00;101179.44;1746056;80;21360;-91
2022/07/29 01:48:48;;;;;;;3.52;3.22;;;;;;;19.23;100.00;101182.25;1747481;80;20946;-92
2022/07/29 01:51:21;;;;;;;3.70;3.40;;;;;;;19.26;100.00;101182.45;1754250;80;21077;-91
2022/07/29 01:54:08;;;;;;;4.47;3.20;;;;;;;19.26;100.00;101177.98;1755491;80;21484;-92
2022/07/29 01:56:39;;;;;;;5.20;3.37;;;;;;;19.25;100.00;101173.69;1722429;82;21021;-92
2022/07/29 01:59:10;;;;;;;3.60;3.30;;;;;;;19.22;100.00;101177.48;1726893;82;21217;-91
2022/07/29 02:01:39;;;;;;;3.37;3.08;;;;;;;19.17;100.00;101174.50;1717251;82;21041;-92
2022/07/29 02:04:11;;;;;;;3.85;3.55;;;;;;;19.12;100.00;101181.23;1730817;82;21654;-90
2022/07/29 02:06:42;;;;;;;3.62;3.27;;;;;;;19.06;100.00;101178.25;1729698;82;21022;-91
2022/07/29 02:09:15;;;;;;;3.67;3.35;;;;;;;19.01;100.00;101173.09;1702237;82;21069;-91
2022/07/29 02:11:47;;;;;;;4.35;3.72;;;;;;;18.94;100.00;101173.39;1713020;82;21146;-92
2022/07/29 02:14:19;;;;;;;4.03;3.65;;;;;;;18.90;100.00;101178.12;1715355;82;21993;-91
2022/07/29 02:16:50;;;;;;;;;;;;;;;18.87;100.00;101177.92;1726841;82;21081;-91
2022/07/29 02:19:23;;;;;;;3.60;3.30;;;;;;;18.86;100.00;101181.58;1709828;82;20218;-93
2022/07/29 02:21:58;;;;;;;5.17;3.77;;;;;;;18.85;100.00;101186.51;1699544;83;21019;-91
2022/07/29 02:24:27;;;;;;;3.87;3.35;;;;;;;18.87;100.00;101188.98;1710686;82;21173;-92
2022/07/29 02:26:58;;;;;;;4.40;3.50;;;;;;;18.88;100.00;101195.41;1712050;82;21010;-93
2022/07/29 02:29:27;;;;;;;4.07;3.77;;;;;;;18.91;100.00;101190.31;1713344;82;21738;-92
2022/07/29 02:31:57;;;;;;;6.92;3.70;;;;;;;18.93;100.00;101184.93;1765310;80;21085;-92
2022/07/29 02:34:29;;;;;;;4.95;3.37;;;;;;;18.94;100.00;101179.99;1755240;80;21017;-91
2022/07/29 02:36:58;;;;;;;6.72;3.35;;;;;;;18.90;100.00;101182.90;1756037;81;21794;-91
2022/07/29 02:39:27;;;;;;;4.00;3.40;;;;;;;18.90;100.00;101181.58;1756863;80;21525;-92
2022/07/29 02:42:08;;;;;;;4.28;3.40;;;;;;;18.89;100.00;101177.79;1761661;80;21136;-92
2022/07/29 02:44:37;;;;;;;7.55;4.00;;;;;;;18.89;100.00;101174.64;1750945;80;21046;-92
2022/07/29 02:47:37;;;;;;;4.45;3.62;;;;;;;18.87;100.00;101179.24;1745821;80;21651;-91
2022/07/29 02:50:36;;;;;;;5.28;3.55;;;;;;;18.85;100.00;101183.88;1760006;80;21184;-92
2022/07/29 02:53:21;;;;;;;4.22;3.80;;;;;;;18.76;100.00;101179.02;1759692;80;21019;-91
2022/07/29 02:56:03;;;;;;;4.25;3.95;;;;;;;18.66;100.00;101182.75;1767574;81;21054;-92
2022/07/29 02:58:49;;;;;;;4.67;4.20;;;;;;;18.51;100.00;101189.91;1744680;80;20983;-92
2022/07/29 03:01:22;;;;;;;4.45;3.80;;;;;;;18.42;100.00;101186.87;1755222;80;21520;-91
2022/07/29 03:03:53;;;;;;;4.17;3.85;;;;;;;18.39;100.00;101193.75;1752352;80;21906;-90
2022/07/29 03:06:23;;;;;;;4.17;3.87;;;;;;;18.39;100.00;101199.02;1763999;80;20998;-90
2022/07/29 03:08:54;;;;;;;4.28;3.95;;;;;;;18.39;100.00;101195.91;1763251;80;21038;-90
2022/07/29 03:11:24;;;;;;;7.25;3.75;;;;;;;18.41;100.00;101207.14;1756638;80;21603;-92
2022/07/29 03:13:54;;;;;;;3.95;3.65;;;;;;;18.43;100.00;101205.66;1761620;80;21519;-91
2022/07/29 03:16:24;;;;;;;5.28;3.60;;;;;;;18.44;100.00;101212.59;1762976;81;21112;-90
2022/07/29 03:18:55;;;;;;;3.90;3.60;;;;;;;18.45;100.00;101208.48;1750906;81;21066;-90
2022/07/29 03:21:22;;;;;;;5.15;3.65;;;;;;;18.49;100.00;101216.91;1751980;80;21101;-89
2022/07/29 03:23:52;;;;;;;4.20;3.80;;;;;;;18.54;100.00;101215.98;1748334;81;21034;-88
2022/07/29 03:26:20;;;;;;;6.17;4.65;;;;;;;18.57;100.00;101215.66;1758213;80;20983;-90
2022/07/29 03:28:49;;;;;;;3.87;3.58;;;;;;;18.64;100.00;101216.35;1742129;80;21078;-89
2022/07/29 03:31:16;;;;;;;4.22;3.92;;;;;;;18.68;100.00;101215.89;1760006;80;21022;-90
2022/07/29 03:33:45;;;;;;;4.17;3.83;;;;;;;18.73;100.00;101222.88;1708889;82;21058;-90
2022/07/29 03:36:15;;;;;;;4.47;4.08;;;;;;;18.78;100.00;101221.56;1734401;80;21502;-90
2022/07/29 03:38:44;;;;;;;5.92;4.22;;;;;;;18.82;100.00;101221.11;1743570;81;21007;-92
2022/07/29 03:41:13;;;;;;;4.67;4.22;;;;;;;18.87;100.00;101221.96;1747683;80;21149;-89
2022/07/29 03:43:43;;;;;;;5.65;4.10;;;;;;;18.90;100.00;101225.62;1749600;80;21030;-90
2022/07/29 03:46:13;;;;;;;4.62;4.22;;;;;;;18.97;100.00;101219.23;1742253;80;21046;-91
2022/07/29 03:48:46;;;;;;;4.67;3.83;;;;;;;19.02;100.00;101220.44;1751817;80;21069;-91
2022/07/29 03:51:16;;;;;;;3.98;3.62;;;;;;;19.10;100.00;101224.09;1737063;80;21748;-92
2022/07/29 03:53:43;;;;;;;5.08;3.98;;;;;;;19.17;100.00;101225.97;1746599;80;21817;-90
2022/07/29 03:56:16;;;;;;;4.58;4.20;;;;;;;19.23;100.00;101221.84;1738329;80;21039;-91
2022/07/29 03:58:46;;;;;;;7.35;4.15;;;;;;;19.27;100.00;101220.56;1737693;81;21030;-90
2022/07/29 04:01:17;;;;;;;5.12;4.12;;;;;;;19.34;100.00;101227.38;1734777;80;21079;-91
2022/07/29 04:03:45;;;;;;;4.28;3.85;;;;;;;19.37;100.00;101222.59;1748775;80;21007;-93
2022/07/29 04:06:14;;;;;;;4.33;4.00;;;;;;;19.44;100.00;101224.59;1735428;80;22088;-92
2022/07/29 04:08:42;;;;;;;4.40;4.10;;;;;;;19.49;100.00;101224.46;1738278;81;20991;-92
2022/07/29 04:11:10;;;;;;;7.03;4.47;;;;;;;19.54;100.00;101220.84;1742596;80;21081;-92
2022/07/29 04:13:39;;;;;;;5.25;4.22;;;;;;;19.65;100.00;101224.18;1736673;80;21934;-95
2022/07/29 04:16:08;;;;;;;4.30;4.00;;;;;;;19.74;100.00;101227.66;1744803;80;21031;-93
2022/07/29 04:18:36;;;;;;;4.45;4.05;;;;;;;19.80;100.00;101224.37;1741239;81;21180;-92
2022/07/29 04:21:05;;;;;;;4.30;3.98;;;;;;;19.89;100.00;101223.94;1736110;80;21039;-92
2022/07/29 04:23:33;;;;;;;4.30;3.95;;;;;;;20.01;100.00;101230.08;1741443;80;21071;-93
2022/07/29 04:26:10;;;;;;;7.17;3.98;;;;;;;20.11;100.00;101227.78;1743601;80;21046;-89
2022/07/29 04:28:39;;;;;;;6.42;3.87;;;;;;;20.18;100.00;101225.62;1742177;81;21074;-90
2022/07/29 04:31:05;;;;;;;5.87;4.00;;;;;;;20.28;100.00;101218.85;1742184;80;21134;-90
2022/07/29 04:33:33;;;;;;;4.45;4.08;;;;;;;20.38;100.00;101221.36;1746804;80;21689;-90
2022/07/29 04:36:00;;;;;;;8.28;4.10;;;;;;;20.49;100.00;101222.84;1754009;80;21099;-92
2022/07/29 04:38:29;;;;;;;3.90;3.60;;;;;;;20.58;100.00;101224.48;1699766;83;21050;-93
2022/07/29 04:40:58;;;;;;;3.77;3.47;;;;;;;20.68;100.00;101224.30;1713700;82;21027;-95
2022/07/29 04:43:25;;;;;;;4.50;4.10;;;;;;;20.77;100.00;101222.48;1721772;82;21102;-92
2022/07/29 04:45:53;;;;;;;4.33;3.92;;;;;;;20.85;100.00;101227.77;1715176;82;21049;-92
2022/07/29 04:48:27;;;;;;;4.45;4.05;;;;;;;20.91;100.00;101223.12;1726350;82;21430;-92
2022/07/29 04:50:57;;;;;;;4.33;3.92;;;;;;;21.00;100.00;101219.97;1719525;82;21058;-93
2022/07/29 04:53:25;;;;;;;5.67;4.60;;;;;;;21.09;100.00;101220.28;1713937;82;21057;-93
2022/07/29 04:55:53;;;;;;;4.25;3.85;;;;;;;21.21;100.00;101216.77;1718535;82;21592;-94
2022/07/29 04:58:23;;;;;;;5.72;4.53;;;;;;;21.35;100.00;101224.47;1724223;82;21051;-91
2022/07/29 05:00:52;;;;;;;4.55;4.03;;;;;;;21.48;100.00;101220.46;1725655;82;21073;-91
2022/07/29 05:03:20;;;;;;;5.05;4.00;;;;;;;21.59;100.00;101223.58;1719604;82;21458;-92
2022/07/29 05:05:49;;;;;;;5.17;3.90;;;;;;;21.72;100.00;101216.87;1719451;82;21056;-93
2022/07/29 05:08:16;;;;;;;7.33;3.90;;;;;;;21.82;100.00;101218.00;1728438;82;21108;-91
2022/07/29 05:10:45;;;;;;;4.45;4.05;;;;;;;21.90;100.00;101208.67;1723550;82;21058;-92
2022/07/29 05:13:13;;;;;;;4.55;4.15;;;;;;;22.00;100.00;101201.80;1702659;83;21039;-88
2022/07/29 05:15:40;;;;;;;4.15;3.85;;;;;;;22.06;100.00;101203.25;1700763;83;21081;-88
2022/07/29 05:18:11;;;;;;;3.95;3.65;;;;;;;22.15;100.00;101208.50;1698251;83;21053;-89
2022/07/29 05:20:39;;;;;;;4.40;4.00;;;;;;;22.22;100.00;101202.80;1689489;83;21285;-89
2022/07/29 05:23:12;;;;;;;7.05;4.15;;;;;;;22.30;100.00;101206.72;1721798;82;21093;-88
2022/07/29 05:25:39;;;;;;;4.12;3.83;;;;;;;22.37;100.00;101199.69;1689830;82;21069;-89
2022/07/29 05:28:07;;;;;;;4.17;3.77;;;;;;;22.47;100.00;101207.93;1727404;82;20979;-90
2022/07/29 05:30:35;;;;;;;6.50;3.65;;;;;;;22.53;100.00;101212.00;1723529;82;21018;-91
2022/07/29 05:33:03;;;;;;;4.60;3.50;;;;;;;22.58;100.00;101210.13;1718890;82;21239;-88
2022/07/29 05:35:36;;;;;;;4.10;3.70;;;;;;;22.63;100.00;101206.45;1691230;82;21046;-91
2022/07/29 05:38:04;;;;;;;4.40;4.08;;;;;;;22.71;100.00;101210.03;1731677;82;21069;-91
2022/07/29 05:40:34;;;;;;;4.70;3.80;;;;;;;22.78;100.00;101210.95;1688186;82;21606;-90
2022/07/29 05:43:02;;;;;;;3.98;3.55;;;;;;;22.87;100.00;101215.17;1727554;82;21017;-90
2022/07/29 05:45:30;;;;;;;8.25;3.62;;;;;;;22.99;100.00;101216.35;1692630;83;21687;-89
2022/07/29 05:47:58;;;;;;;4.90;3.45;;;;;;;23.11;100.00;101218.56;1726278;82;21111;-89
2022/07/29 05:59:57;;;;;;;5.40;4.12;;;;;;;23.41;100.00;101211.91;1708455;84;21077;-93
2022/07/29 06:02:28;;;;;;;8.80;4.08;;;;;;;23.48;100.00;101208.82;1732448;82;21111;-91
2022/07/29 06:09:03;;;;;;;4.05;3.00;;;;;;;23.71;100.00;101203.37;1716540;82;21037;-92
2022/07/29 06:11:32;;;;;;;6.10;3.02;;;;;;;23.90;100.00;101201.08;1688320;82;21097;-92
2022/07/29 06:14:03;;;;;;;3.45;3.10;;;;;;;23.99;100.00;101204.48;1723125;82;21062;-91
2022/07/29 06:16:36;;;;;;;3.55;3.10;;;;;;;24.02;100.00;101201.42;1688334;82;21684;-91
2022/07/29 06:19:05;;;;;;;2.85;2.65;;;;;;;24.07;100.00;101203.84;1709575;82;21870;-92
2022/07/29 06:21:43;;;;;;;5.00;3.07;;;;;;;24.14;100.00;101195.92;1713675;82;21089;-91
2022/07/29 06:24:49;;;;;;;3.62;2.70;;;;;;;24.22;100.00;101193.13;1725138;82;21077;-91
2022/07/29 06:38:02;;;;;;;3.60;3.22;;;;;;;24.77;100.00;101204.50;1742197;82;21104;-92
2022/07/29 06:41:18;;;;;;;2.98;2.77;;;;;;;24.83;100.00;101201.05;1772658;80;20990;-92
2022/07/29 06:56:58;;;;;;;5.67;3.00;;;;;;;25.01;100.00;101197.86;1779854;80;21053;-91
2022/07/29 07:07:52;;;;;;;3.80;2.60;;;;;;;25.49;100.00;101192.23;1778846;80;21018;-89
2022/07/29 07:15:28;;;;;;;3.10;2.65;;;;;;;25.56;100.00;101192.27;1780839;80;21100;-91
2022/07/29 07:22:21;;;;;;;3.90;2.70;;;;;;;25.64;100.00;101179.55;1769978;80;21504;-94
2022/07/29 07:24:50;;;;;;;3.10;2.33;;;;;;;25.70;100.00;101181.94;1771962;80;21810;-92
2022/07/29 07:27:19;;;;;;;3.92;2.30;;;;;;;25.73;98.61;101185.54;1768354;80;21558;-92
2022/07/29 07:29:48;;;;;;;2.70;2.50;;;;;;;25.76;100.00;101180.31;1771064;80;21053;-92
2022/07/29 07:32:16;;;;;;;2.37;2.27;;;;;;;25.83;100.00;101187.30;1767655;80;21393;-92
2022/07/29 07:34:44;;;;;;;2.52;2.17;;;;;;;25.98;100.00;101180.95;1750624;80;20951;-92
2022/07/29 07:37:14;;;;;;;2.52;2.30;;;;;;;26.10;95.10;101182.00;1744022;80;21154;-92
2022/07/29 07:39:49;;;;;;;4.33;2.12;;;;;;;26.17;94.93;101179.84;1732873;82;21005;-90
2022/07/29 07:46:44;;;;;;;3.30;1.90;;;;;;;26.30;87.35;101179.86;1732539;82;20997;-91
2022/07/29 07:49:54;;;;;;;4.08;2.20;;;;;;;26.40;91.54;101181.57;1756518;80;20991;-90
2022/07/29 07:52:23;;;;;;;3.17;2.87;;;;;;;26.51;90.04;101181.48;1754441;81;21237;-92
2022/07/29 07:59:24;;;;;;;2.72;1.90;;;;;;;26.69;80.26;101189.33;1755261;81;21054;-92
2022/07/29 08:05:54;;;;;;;2.75;1.72;;;;;;;26.68;76.59;101185.85;1735636;80;21037;-92
2022/07/29 08:08:22;;;;;;;2.12;2.00;;;;;;;26.79;71.83;101191.62;1751057;81;21465;-91
2022/07/29 08:11:29;;;;;;;2.98;2.10;;;;;;;26.80;70.82;101184.72;1751282;80;21026;-93
2022/07/29 08:13:56;;;;;;;3.40;2.70;;;;;;;26.80;69.29;101180.72;1744286;80;21554;-91
2022/07/29 08:16:26;;;;;;;2.70;2.50;;;;;;;26.82;68.08;101180.50;1750230;80;21077;-92
2022/07/29 08:18:56;;;;;;;2.67;2.45;;;;;;;26.83;66.62;101174.97;1747551;80;21571;-93
2022/07/29 08:21:25;;;;;;;5.53;1.90;;;;;;;26.87;68.45;101179.37;1735836;81;21178;-93
2022/07/29 08:24:42;;;;;;;3.35;2.33;;;;;;;26.91;70.26;101177.41;1748669;80;21078;-92
2022/07/29 08:26:24;;;;;;;3.25;1.95;;;;;;;26.97;67.26;101178.92;1745085;81;21065;-92
2022/07/29 08:28:52;;;;;;;3.35;2.02;;;;;;;27.07;65.92;101177.44;1738746;81;21046;-93
2022/07/29 08:31:21;;;;;;;4.75;2.20;;;;;;;27.16;64.27;101179.87;1743626;80;21085;-93
2022/07/29 08:33:48;;;;;;;4.22;1.98;;;;;;;27.19;61.54;101188.28;1741057;80;21153;-92
2022/07/29 08:36:16;;;;;;;3.08;2.15;;;;;;;27.24;64.53;101180.44;1755349;80;21045;-92
2022/07/29 08:38:46;;;;;;;3.47;2.10;;;;;;;27.29;60.51;101185.14;1755483;80;21887;-93
2022/07/29 08:41:16;;;;;;;3.05;2.20;;;;;;;27.32;58.76;101181.25;1767975;80;21081;-93
2022/07/29 08:44:50;;;;;;;3.33;1.70;;;;;;;27.35;60.07;101182.98;1772760;80;21123;-92
2022/07/29 08:47:47;;;;;;;2.98;1.80;;;;;;;27.43;63.34;101181.11;1773898;80;21098;-93
2022/07/29 08:50:55;;;;;;;3.65;2.15;;;;;;;27.55;61.17;101183.39;1759359;80;21126;-93
2022/07/29 08:53:26;;;;;;;2.42;2.00;;;;;;;27.57;57.69;101184.01;1763095;80;21101;-93
2022/07/29 08:55:56;;;;;;;2.83;2.00;;;;;;;27.59;61.36;101183.28;1755268;80;21096;-91
2022/07/29 09:03:04;;;;;;;3.55;2.20;;;;;;;27.71;55.37;101186.89;1749363;82;20951;-93
2022/07/29 09:09:56;;;;;;;4.53;2.33;;;;;;;27.64;60.19;101178.09;1772595;80;21065;-90
2022/07/29 09:12:27;;;;;;;;;;;;;;;27.79;58.02;101180.98;1757178;80;21018;-92
2022/07/29 09:15:31;;;;;;;3.65;1.85;;;;;;;27.90;55.64;101177.62;1762592;80;20214;-90
2022/07/29 09:18:55;;;;;;;2.02;1.82;;;;;;;28.00;58.90;101182.47;1752251;80;21138;-91
2022/07/29 09:25:07;;;;;;;1.80;1.70;;;;;;;28.26;57.97;101176.63;1697695;82;21125;-90
2022/07/29 09:27:34;;;;;;;2.17;2.00;;;;;;;28.36;58.09;101176.12;1727841;82;21053;-90
2022/07/29 09:30:10;;;;;;;2.08;1.98;;;;;;;28.40;54.61;101186.17;1772841;80;21108;-90
2022/07/29 09:33:01;;;;;;;2.10;1.90;;;;;;;28.38;52.65;101183.42;1770343;80;21558;-90
2022/07/29 09:35:31;;;;;;;1.92;1.80;;;;;;;28.35;54.50;101177.99;1757848;80;21042;-89
2022/07/29 09:38:10;;;;;;;4.42;2.08;;;;;;;28.38;52.03;101182.08;1743911;80;21093;-89
2022/07/29 09:40:38;;;;;;;3.72;2.02;;;;;;;28.40;50.70;101183.49;1748146;80;21597;-90
2022/07/29 09:43:13;;;;;;;1.92;1.80;;;;;;;28.43;50.56;101178.21;1739503;80;20990;-93
2022/07/29 09:45:40;;;;;;;3.25;1.80;;;;;;;28.53;52.04;101179.87;1738279;80;21727;-92
2022/07/29 09:48:22;;;;;;;2.65;1.60;;;;;;;28.64;49.25;101174.29;1744542;81;22172;-90
2022/07/29 09:50:52;;;;;;;3.62;1.90;;;;;;;28.70;51.21;101172.63;1737291;81;21053;-91
2022/07/29 09:53:34;;;;;;;2.30;2.10;;;;;;;28.82;48.72;101167.33;1755483;80;21082;-90
2022/07/29 09:56:04;;;;;;;3.55;2.22;;;;;;;28.90;48.17;101165.16;1749637;80;21017;-94
2022/07/29 09:58:34;;;;;;;4.37;2.02;;;;;;;29.02;49.75;101161.20;1749804;80;21050;-93
2022/07/29 10:01:03;;;;;;;5.25;2.02;;;;;;;29.05;49.77;101165.28;1739347;80;21050;-90
2022/07/29 10:03:30;;;;;;;3.85;2.20;;;;;;;29.03;49.45;101159.35;1751567;80;21472;-94
2022/07/29 10:06:10;;;;;;;2.15;2.05;;;;;;;29.07;50.20;101168.06;1756616;80;21042;-93
2022/07/29 10:08:41;;;;;;;2.05;1.95;;;;;;;29.07;50.15;101164.54;1752555;80;21094;-93
2022/07/29 10:11:17;;;;;;;2.98;2.30;;;;;;;29.02;49.51;101161.20;1748922;80;21154;-91
2022/07/29 10:13:48;;;;;;;2.75;2.20;;;;;;;28.99;49.94;101159.48;1759540;79;21004;-93
2022/07/29 10:16:17;;;;;;;;;;;;;;;28.96;49.62;101162.91;1751488;80;21556;-91
2022/07/29 10:18:46;;;;;;;3.10;2.00;;;;;;;28.90;51.45;101165.69;1748904;80;20176;-90
2022/07/29 10:21:17;;;;;;;3.67;2.95;;;;;;;28.84;52.14;101158.02;1739846;80;21113;-91
2022/07/29 10:23:45;;;;;;;2.65;2.20;;;;;;;28.86;51.07;101159.96;1741912;80;21792;-90
2022/07/29 10:26:14;;;;;;;4.30;2.40;;;;;;;28.92;54.98;101156.38;1750110;80;20995;-90
2022/07/29 10:28:42;;;;;;;5.37;2.40;;;;;;;29.07;55.04;101161.86;1742862;81;21112;-90
2022/07/29 10:31:17;;;;;;;4.70;2.50;;;;;;;29.15;54.48;101164.23;1754696;80;22245;-91
2022/07/29 10:33:56;;;;;;;7.00;2.47;;;;;;;29.22;53.09;101165.49;1744516;80;21686;-91
2022/07/29 10:36:57;;;;;;;3.52;2.42;;;;;;;29.26;53.28;101158.62;1727692;82;21170;-91
2022/07/29 10:39:40;;;;;;;2.40;2.20;;;;;;;29.29;52.46;101155.49;1688469;82;21315;-89
2022/07/29 10:42:22;;;;;;;7.75;2.92;;;;;;;29.29;51.13;101158.17;1695672;83;21141;-93
2022/07/29 10:44:52;;;;;;;;;;;;;;;29.25;50.78;101156.47;1706742;83;21093;-92
2022/07/29 10:47:27;;;;;;;3.87;2.30;;;;;;;29.26;54.10;101155.43;1722756;82;20169;-92
2022/07/29 10:50:04;;;;;;;3.05;2.12;;;;;;;29.32;52.42;101152.40;1715815;82;21797;-91
2022/07/29 10:53:00;;;;;;;4.45;2.40;;;;;;;29.42;55.41;101150.50;1728958;82;21069;-92
2022/07/29 10:56:23;;;;;;;3.05;2.10;;;;;;;29.57;50.44;101146.03;1727017;82;21124;-93
2022/07/29 10:59:26;;;;;;;2.45;2.20;;;;;;;29.69;51.37;101139.34;1728873;82;20994;-94
2022/07/29 11:02:54;;;;;;;6.05;2.65;;;;;;;29.66;51.69;101149.22;1682910;83;21588;-92
2022/07/29 11:09:26;;;;;;;4.72;2.42;;;;;;;29.56;51.51;101140.39;1725964;82;20991;-93
2022/07/29 11:12:51;;;;;;;3.20;2.70;;;;;;;29.63;51.32;101144.30;1691718;83;21081;-93
2022/07/29 11:15:55;;;;;;;2.72;2.35;;;;;;;29.65;50.05;101148.38;1739793;82;21038;-92
2022/07/29 11:22:34;;;;;;;3.70;2.42;;;;;;;29.57;50.27;101148.71;1730964;82;21062;-94
2022/07/29 11:25:16;;;;;;;2.37;2.12;;;;;;;29.41;50.22;101139.47;1692244;84;21606;-94
2022/07/29 11:27:49;;;;;;;2.35;2.15;;;;;;;29.30;52.26;101134.34;1729069;82;21022;-94
2022/07/29 11:30:48;;;;;;;2.47;2.20;;;;;;;29.34;48.69;101141.44;1743126;82;21002;-94
2022/07/29 11:33:34;;;;;;;3.05;2.22;;;;;;;29.32;49.34;101134.97;1723060;82;21005;-94
2022/07/29 11:36:14;;;;;;;2.35;2.12;;;;;;;29.35;49.83;101139.05;1693578;83;21779;-93
2022/07/29 11:39:28;;;;;;;3.17;2.15;;;;;;;29.39;50.70;101142.89;1676803;85;21592;-93
2022/07/29 11:46:48;;;;;;;1.85;1.60;;;;;;;29.43;49.49;101138.19;1694808;83;21637;-93
2022/07/29 11:57:24;;;;;;;2.05;1.82;;;;;;;29.39;45.73;101132.17;1683182;84;21104;-91
2022/07/29 12:00:31;;;;;;;3.95;1.87;;;;;;;29.32;47.70;101133.62;1714251;83;21058;-94
2022/07/29 12:03:39;;;;;;;4.15;1.85;;;;;;;29.37;49.66;101136.43;1733862;81;21762;-93
2022/07/29 12:06:46;;;;;;;2.85;2.05;;;;;;;29.49;47.37;101132.95;1714860;81;21593;-92
2022/07/29 12:09:50;;;;;;;3.02;1.82;;;;;;;29.47;47.04;101130.50;1687772;83;22020;-93
2022/07/29 12:16:39;;;;;;;3.65;1.67;;;;;;;29.31;45.51;101128.44;1737456;81;20999;-92
2022/07/29 12:19:15;;;;;;;2.40;1.80;;;;;;;29.22;44.80;101134.66;1752239;81;21014;-93
2022/07/29 12:21:48;;;;;;;2.75;1.80;;;;;;;29.18;47.19;101132.95;1726995;80;21027;-90
2022/07/29 12:24:19;;;;;;;2.83;2.02;;;;;;;29.18;46.17;101117.38;1750159;81;21115;-95
2022/07/29 12:27:07;;;;;;;4.12;1.70;;;;;;;29.19;47.86;101134.59;1731883;81;21010;-95
2022/07/29 12:29:40;;;;;;;3.27;2.00;;;;;;;29.23;46.52;101129.06;1742940;81;21066;-94
2022/07/29 12:32:50;;;;;;;2.80;1.90;;;;;;;29.29;47.65;101131.36;1750106;80;21027;-94
2022/07/29 12:35:48;;;;;;;3.42;1.87;;;;;;;29.32;45.56;101127.43;1753680;80;21542;-93
2022/07/29 12:38:19;;;;;;;2.85;1.95;;;;;;;29.24;44.49;101128.55;1747285;81;22202;-92
2022/07/29 12:40:48;;;;;;;1.82;1.70;;;;;;;29.16;45.47;101120.83;1752516;80;21003;-95
2022/07/29 12:43:23;;;;;;;1.93;1.70;;;;;;;29.18;45.67;101119.55;1763213;80;21010;-95
2022/07/29 12:45:54;;;;;;;2.83;2.02;;;;;;;29.25;47.03;101124.80;1761218;80;21125;-92
2022/07/29 12:48:37;;;;;;;2.05;1.70;;;;;;;29.36;46.40;101120.58;1756385;80;21021;-93
2022/07/29 12:51:08;;;;;;;1.70;1.60;;;;;;;29.42;45.07;101125.02;1758276;80;22949;-93
2022/07/29 12:53:37;;;;;;;1.90;1.70;;;;;;;29.34;44.65;101115.95;1748800;80;21006;-93
2022/07/29 12:56:10;;;;;;;4.00;2.08;;;;;;;29.26;45.61;101126.44;1755661;80;21045;-95
2022/07/29 12:58:40;;;;;;;4.58;1.67;;;;;;;29.20;45.93;101117.98;1753113;80;21038;-93
2022/07/29 13:01:15;;;;;;;2.85;1.90;;;;;;;29.15;45.41;101120.00;1761042;80;21070;-95
2022/07/29 13:04:02;;;;;;;3.65;1.80;;;;;;;29.11;45.50;101122.31;1735984;80;21049;-94
2022/07/29 13:06:42;;;;;;;2.05;1.80;;;;;;;29.10;45.58;101122.02;1761138;80;20986;-94
2022/07/29 13:09:14;;;;;;;2.02;1.77;;;;;;;29.12;44.69;101126.64;1759129;80;21546;-95
2022/07/29 13:11:49;;;;;;;3.70;1.75;;;;;;;29.10;44.19;101117.99;1755779;81;21055;-95
2022/07/29 13:14:45;;;;;;;2.15;1.55;;;;;;;29.12;44.70;101121.27;1757151;81;21081;-95
2022/07/29 13:17:20;;;;;;;2.77;1.60;;;;;;;29.08;44.54;101121.95;1699502;82;21513;-95
2022/07/29 13:19:55;;;;;;;3.00;1.45;;;;;;;29.06;45.98;101126.71;1696068;82;21084;-94
2022/07/29 13:22:24;;;;;;;2.75;1.60;;;;;;;29.13;43.80;101128.78;1698985;82;21018;-95
2022/07/29 13:25:11;;;;;;;1.75;1.65;;;;;;;29.13;42.33;101134.14;1724227;82;22103;-95
2022/07/29 13:27:41;;;;;;;4.47;1.85;;;;;;;29.07;41.87;101132.37;1699943;84;21083;-95
2022/07/29 13:30:12;;;;;;;1.70;1.60;;;;;;;28.98;41.32;101136.41;1721122;82;21032;-96
2022/07/29 13:32:41;;;;;;;3.35;1.70;;;;;;;28.87;43.15;101130.78;1692382;83;21140;-93
2022/07/29 13:35:29;;;;;;;1.87;1.70;;;;;;;28.82;42.96;101126.61;1720459;82;21146;-95
2022/07/29 13:37:56;;;;;;;1.90;1.50;;;;;;;28.83;42.27;101132.80;1724433;82;21068;-91
2022/07/29 13:40:24;;;;;;;3.62;1.50;;;;;;;28.89;42.24;101128.67;1692683;84;21153;-92
2022/07/29 13:42:54;;;;;;;1.80;1.40;;;;;;;28.95;39.72;101132.32;1720921;82;21038;-91
2022/07/29 13:48:55;;;;;;;1.87;1.60;;;;;;;28.93;40.58;101129.88;1718988;82;42064;-91
2022/07/29 13:51:22;;;;;;;;;;;;;;;29.01;41.24;101127.92;1696175;84;21065;-92